createdAt,value
2022-09-21T00:01:18.740Z,71.28
2022-09-21T00:03:45.858Z,71.02
2022-09-21T00:06:17.246Z,71.68
2022-09-21T00:08:44.443Z,71.17
2022-09-21T00:11:15.193Z,71.25
2022-09-21T00:13:42.389Z,71.29
2022-09-21T00:16:10.385Z,71.54
2022-09-21T00:18:37.630Z,71.33
2022-09-21T00:21:08.987Z,71.59
2022-09-21T00:23:36.484Z,71.54
2022-09-21T00:26:10.752Z,71.44
2022-09-21T00:28:37.982Z,71.89
2022-09-21T00:31:05.640Z,71.38
2022-09-21T00:33:32.931Z,71.49
2022-09-21T00:36:07.324Z,71.33
2022-09-21T00:38:34.442Z,71.14
2022-09-21T00:41:01.345Z,71.47
2022-09-21T00:43:28.373Z,71.26
2022-09-21T00:46:00.551Z,71.49
2022-09-21T00:48:28.183Z,71.66
2022-09-21T00:50:55.654Z,71.96
2022-09-21T00:53:22.910Z,71.28
2022-09-21T00:55:52.235Z,71.49
2022-09-21T00:58:21.115Z,71.54
2022-09-21T01:00:48.240Z,71.26
2022-09-21T01:03:17.374Z,71.34
2022-09-21T01:05:44.284Z,71.44
2022-09-21T01:08:12.490Z,71.23
2022-09-21T01:11:25.743Z,71.27
2022-09-21T01:14:20.313Z,71.05
2022-09-21T01:17:14.961Z,71.47
2022-09-21T01:19:58.965Z,71.45
2022-09-21T01:22:33.707Z,71.52
2022-09-21T01:25:32.340Z,71.44
2022-09-21T01:28:18.068Z,71.34
2022-09-21T01:30:48.960Z,71.19
2022-09-21T01:33:20.681Z,71.44
2022-09-21T01:35:49.459Z,70.99
2022-09-21T01:38:20.031Z,71.16
2022-09-21T01:40:50.480Z,71.31
2022-09-21T01:43:25.510Z,71.30
2022-09-21T01:45:54.770Z,71.40
2022-09-21T01:48:22.513Z,71.25
2022-09-21T01:50:54.308Z,71.19
2022-09-21T01:53:37.507Z,71.23
2022-09-21T01:56:12.030Z,71.40
2022-09-21T01:59:08.843Z,71.39
2022-09-21T02:01:38.764Z,71.24
2022-09-21T02:04:09.628Z,71.68
2022-09-21T02:06:36.636Z,71.52
2022-09-21T02:09:03.595Z,71.53
2022-09-21T02:11:30.520Z,71.51
2022-09-21T02:13:57.471Z,71.45
2022-09-21T02:16:39.805Z,71.46
2022-09-21T02:19:44.300Z,71.26
2022-09-21T02:22:18.908Z,71.31
2022-09-21T02:24:48.152Z,71.49
2022-09-21T02:27:24.409Z,71.28
2022-09-21T02:29:52.917Z,71.39
2022-09-21T02:32:28.930Z,71.39
2022-09-21T02:35:04.131Z,71.44
2022-09-21T02:38:18.260Z,71.50
2022-09-21T02:40:54.197Z,71.93
2022-09-21T02:43:39.406Z,71.36
2022-09-21T02:46:12.463Z,71.47
2022-09-21T02:48:43.415Z,71.38
2022-09-21T02:51:12.046Z,71.82
2022-09-21T02:53:39.130Z,71.67
2022-09-21T02:56:07.514Z,71.61
2022-09-21T02:58:36.293Z,71.74
2022-09-21T03:01:08.799Z,71.78
2022-09-21T03:03:35.960Z,71.51
2022-09-21T03:06:03.175Z,71.78
2022-09-21T03:08:30.613Z,71.64
2022-09-21T03:10:57.984Z,71.89
2022-09-21T03:13:25.051Z,71.55
2022-09-21T03:16:04.999Z,71.89
2022-09-21T03:18:32.065Z,71.94
2022-09-21T03:20:59.249Z,71.70
2022-09-21T03:23:26.192Z,72.09
2022-09-21T03:25:53.115Z,71.99
2022-09-21T03:28:20.177Z,72.02
2022-09-21T03:30:48.798Z,72.10
2022-09-21T03:33:16.198Z,72.05
2022-09-21T03:35:43.218Z,71.69
2022-09-21T03:38:10.199Z,72.28
2022-09-21T03:40:37.182Z,72.18
2022-09-21T03:43:04.198Z,72.29
2022-09-21T03:45:31.076Z,72.34
2022-09-21T03:47:58.491Z,72.12
2022-09-21T03:50:26.607Z,72.23
2022-09-21T03:52:53.548Z,72.23
2022-09-21T03:55:20.517Z,72.35
2022-09-21T03:57:48.218Z,72.38
2022-09-21T04:00:15.349Z,72.17
2022-09-21T04:02:42.569Z,72.24
2022-09-21T04:05:10.625Z,72.09
2022-09-21T04:07:37.987Z,72.13
2022-09-21T04:10:06.172Z,72.07
2022-09-21T04:12:34.836Z,71.94
2022-09-21T04:15:02.086Z,72.12
2022-09-21T04:17:29.520Z,72.28
2022-09-21T04:19:56.889Z,72.28
2022-09-21T04:22:25.018Z,72.28
2022-09-21T04:24:52.178Z,72.35
2022-09-21T04:27:19.149Z,72.20
2022-09-21T04:29:46.108Z,72.16
2022-09-21T04:32:12.981Z,72.11
2022-09-21T04:34:40.336Z,72.42
2022-09-21T04:37:11.985Z,72.38
2022-09-21T04:39:38.932Z,72.37
2022-09-21T04:42:06.204Z,72.37
2022-09-21T04:44:33.192Z,72.45
2022-09-21T04:47:00.501Z,72.30
2022-09-21T04:49:27.541Z,72.53
2022-09-21T04:51:54.443Z,72.22
2022-09-21T04:54:21.472Z,72.45
2022-09-21T04:56:48.387Z,72.50
2022-09-21T04:59:15.344Z,72.40
2022-09-21T05:01:42.311Z,72.45
2022-09-21T05:04:09.298Z,72.91
2022-09-21T05:06:36.162Z,72.24
2022-09-21T05:09:21.796Z,72.54
2022-09-21T05:11:48.745Z,72.61
2022-09-21T05:14:15.752Z,72.39
2022-09-21T05:16:42.940Z,72.25
2022-09-21T05:19:09.833Z,72.61
2022-09-21T05:21:37.274Z,72.65
2022-09-21T05:24:04.397Z,72.52
2022-09-21T05:26:31.320Z,72.38
2022-09-21T05:28:58.655Z,73.00
2022-09-21T05:31:44.536Z,72.70
2022-09-21T05:34:38.369Z,72.89
2022-09-21T05:37:13.272Z,72.85
2022-09-21T05:39:40.912Z,72.70
2022-09-21T05:42:10.496Z,73.01
2022-09-21T05:44:37.778Z,72.49
2022-09-21T05:47:13.296Z,72.88
2022-09-21T05:49:59.803Z,73.24
2022-09-21T05:52:39.949Z,73.27
2022-09-21T05:55:35.591Z,73.18
2022-09-21T05:58:10.478Z,73.09
2022-09-21T06:00:47.955Z,73.35
2022-09-21T06:03:23.955Z,73.59
2022-09-21T06:05:51.228Z,73.53
2022-09-21T06:08:18.176Z,73.50
2022-09-21T06:10:45.493Z,73.98
2022-09-21T06:13:12.399Z,73.36
2022-09-21T06:15:39.436Z,73.70
2022-09-21T06:18:07.079Z,73.49
2022-09-21T06:20:34.130Z,73.42
2022-09-21T06:23:09.007Z,73.50
2022-09-21T06:25:35.977Z,73.56
2022-09-21T06:28:05.885Z,73.45
2022-09-21T06:30:34.739Z,73.80
2022-09-21T06:33:02.338Z,73.57
2022-09-21T06:35:29.571Z,73.67
2022-09-21T06:38:06.895Z,73.35
2022-09-21T06:40:35.337Z,73.67
2022-09-21T06:43:02.738Z,73.73
2022-09-21T06:45:30.197Z,73.94
2022-09-21T06:47:57.205Z,73.73
2022-09-21T06:50:24.255Z,73.90
2022-09-21T06:52:51.532Z,73.87
2022-09-21T06:55:18.600Z,73.85
2022-09-21T06:57:45.728Z,73.45
2022-09-21T07:00:15.705Z,73.93
2022-09-21T07:02:44.688Z,74.13
2022-09-21T07:05:12.388Z,74.36
2022-09-21T07:07:40.583Z,73.61
2022-09-21T07:10:12.385Z,73.82
2022-09-21T07:12:41.933Z,73.77
2022-09-21T07:15:10.518Z,73.79
2022-09-21T07:17:39.897Z,74.13
2022-09-21T07:20:08.489Z,73.64
2022-09-21T07:22:35.694Z,73.48
2022-09-21T07:25:04.459Z,73.76
2022-09-21T07:27:31.914Z,73.94
2022-09-21T07:29:58.843Z,73.85
2022-09-21T07:32:28.616Z,73.66
2022-09-21T07:34:57.247Z,73.67
2022-09-21T07:37:27.509Z,73.12
2022-09-21T07:39:54.936Z,73.20
2022-09-21T07:42:22.926Z,73.73
2022-09-21T07:44:51.043Z,73.32
2022-09-21T07:47:19.581Z,73.65
2022-09-21T07:49:47.256Z,73.10
2022-09-21T07:52:15.632Z,73.19
2022-09-21T07:54:42.638Z,73.20
2022-09-21T07:57:27.920Z,73.25
2022-09-21T07:59:58.501Z,73.00
2022-09-21T08:02:25.642Z,73.41
2022-09-21T08:04:53.749Z,73.09
2022-09-21T08:07:20.774Z,73.29
2022-09-21T08:09:49.588Z,73.13
2022-09-21T08:12:18.868Z,73.08
2022-09-21T08:14:45.943Z,72.49
2022-09-21T08:17:12.944Z,72.47
2022-09-21T08:19:40.023Z,72.41
2022-09-21T08:22:08.523Z,72.04
2022-09-21T08:24:36.062Z,72.49
2022-09-21T08:27:05.477Z,72.24
2022-09-21T08:29:32.423Z,71.67
2022-09-21T08:31:59.475Z,71.83
2022-09-21T08:34:26.646Z,71.47
2022-09-21T08:36:55.742Z,71.98
2022-09-21T08:39:24.139Z,71.37
2022-09-21T08:45:31.392Z,71.45
2022-09-21T08:47:59.204Z,71.65
2022-09-21T08:50:39.793Z,71.28
2022-09-21T08:53:18.611Z,71.33
2022-09-21T08:55:45.693Z,71.49
2022-09-21T08:58:23.544Z,71.20
2022-09-21T09:01:15.841Z,70.77
2022-09-21T09:04:11.971Z,71.53
2022-09-21T09:06:42.727Z,71.31
2022-09-21T09:09:28.582Z,71.14
2022-09-21T09:12:21.879Z,71.18
2022-09-21T09:18:29.185Z,71.68
2022-09-21T09:21:09.965Z,71.07
2022-09-21T09:23:41.905Z,70.99
2022-09-21T09:26:14.418Z,70.90
2022-09-21T09:29:26.433Z,70.99
2022-09-21T09:32:05.051Z,71.02
2022-09-21T09:34:35.593Z,70.99
2022-09-21T09:37:21.175Z,70.26
2022-09-21T09:39:54.448Z,70.84
2022-09-21T09:42:52.725Z,70.16
2022-09-21T09:45:55.761Z,69.86
2022-09-21T09:48:29.070Z,70.56
2022-09-21T09:50:56.327Z,69.82
2022-09-21T09:53:25.021Z,70.35
2022-09-21T09:55:53.489Z,70.04
2022-09-21T09:58:39.306Z,70.02
2022-09-21T10:04:07.176Z,68.95
2022-09-21T10:06:34.676Z,69.68
2022-09-21T10:11:47.339Z,69.16
2022-09-21T10:14:23.546Z,68.94
2022-09-21T10:16:52.580Z,69.35
2022-09-21T10:19:24.754Z,69.06
2022-09-21T10:24:42.599Z,69.17
2022-09-21T10:27:14.013Z,69.05
2022-09-21T10:29:42.735Z,69.32
2022-09-21T10:32:14.784Z,69.12
2022-09-21T10:37:46.197Z,68.51
2022-09-21T10:40:22.781Z,68.64
2022-09-21T10:42:51.255Z,67.96
2022-09-21T10:45:30.636Z,67.28
2022-09-21T10:47:57.669Z,67.42
2022-09-21T10:50:37.866Z,67.14
2022-09-21T10:53:11.069Z,66.83
2022-09-21T10:56:15.972Z,66.45
2022-09-21T10:59:21.917Z,65.88
2022-09-21T11:01:53.797Z,65.66
2022-09-21T11:04:45.232Z,65.18
2022-09-21T11:07:22.754Z,64.90
2022-09-21T11:10:12.297Z,64.72
2022-09-21T11:12:51.002Z,65.43
2022-09-21T11:15:23.792Z,64.82
2022-09-21T11:18:15.438Z,64.81
2022-09-21T11:20:54.987Z,65.04
2022-09-21T11:23:38.855Z,65.11
2022-09-21T11:26:10.898Z,65.15
2022-09-21T11:28:47.224Z,64.53
2022-09-21T11:31:45.361Z,64.32
2022-09-21T11:34:47.180Z,64.01
2022-09-21T11:37:20.321Z,64.67
2022-09-21T11:39:50.668Z,64.99
2022-09-21T11:42:26.090Z,64.80
2022-09-21T11:44:56.072Z,64.83
2022-09-21T11:47:50.511Z,64.77
2022-09-21T11:54:00.112Z,64.17
2022-09-21T11:56:49.579Z,63.94
2022-09-21T11:59:25.566Z,64.42
2022-09-21T12:02:00.419Z,64.59
2022-09-21T12:04:42.194Z,64.48
2022-09-21T12:07:34.461Z,64.38
2022-09-21T12:10:13.476Z,64.60
2022-09-21T12:12:43.637Z,64.73
2022-09-21T12:15:33.337Z,64.44
2022-09-21T12:18:18.717Z,64.71
2022-09-21T12:20:48.602Z,64.62
2022-09-21T12:23:23.511Z,64.63
2022-09-21T12:25:53.466Z,64.57
2022-09-21T12:28:29.027Z,64.26
2022-09-21T12:31:00.779Z,64.41
2022-09-21T12:33:37.947Z,63.89
2022-09-21T12:36:27.607Z,63.63
2022-09-21T12:39:08.401Z,63.60
2022-09-21T12:42:05.780Z,63.05
2022-09-21T12:44:33.933Z,63.83
2022-09-21T12:47:09.791Z,63.18
2022-09-21T12:49:45.040Z,63.40
2022-09-21T12:52:21.652Z,63.14
2022-09-21T12:55:00.492Z,63.02
2022-09-21T12:58:04.436Z,63.23
2022-09-21T13:00:46.510Z,63.17
2022-09-21T13:03:44.083Z,62.75
2022-09-21T13:06:47.008Z,62.77
2022-09-21T13:09:15.559Z,63.40
2022-09-21T13:11:52.724Z,62.81
2022-09-21T13:14:19.708Z,63.15
2022-09-21T13:16:46.674Z,62.78
2022-09-21T13:19:13.575Z,62.76
2022-09-21T13:21:40.723Z,62.71
2022-09-21T13:24:13.897Z,62.49
2022-09-21T13:26:44.747Z,62.72
2022-09-21T13:29:17.793Z,62.45
2022-09-21T13:32:24.032Z,62.39
2022-09-21T13:34:51.691Z,63.10
2022-09-21T13:37:18.586Z,62.97
2022-09-21T13:40:04.319Z,62.71
2022-09-21T13:42:37.547Z,63.05
2022-09-21T13:45:13.870Z,62.74
2022-09-21T13:47:47.630Z,62.95
2022-09-21T13:50:33.617Z,62.93
2022-09-21T13:53:02.719Z,63.10
2022-09-21T13:55:33.993Z,63.03
2022-09-21T13:58:04.899Z,62.83
2022-09-21T14:00:42.105Z,62.65
2022-09-21T14:03:22.646Z,62.81
2022-09-21T14:05:52.208Z,63.12
2022-09-21T14:08:26.400Z,63.45
2022-09-21T14:10:56.311Z,63.03
2022-09-21T14:13:32.678Z,63.05
2022-09-21T14:16:51.212Z,62.76
2022-09-21T14:19:18.616Z,63.31
2022-09-21T14:22:03.969Z,63.19
2022-09-21T14:24:51.073Z,62.99
2022-09-21T14:27:26.807Z,63.06
2022-09-21T14:30:06.291Z,63.49
2022-09-21T14:32:50.851Z,63.23
2022-09-21T14:35:24.643Z,62.99
2022-09-21T14:38:34.233Z,62.87
2022-09-21T14:41:03.859Z,63.34
2022-09-21T14:43:36.502Z,62.83
2022-09-21T14:46:30.992Z,62.45
2022-09-21T14:49:20.167Z,62.60
2022-09-21T14:52:04.279Z,63.02
2022-09-21T14:54:45.537Z,62.91
2022-09-21T14:57:24.699Z,62.72
2022-09-21T15:00:04.942Z,62.62
2022-09-21T15:02:34.769Z,62.82
2022-09-21T15:05:28.626Z,62.53
2022-09-21T15:08:35.421Z,62.88
2022-09-21T15:11:26.531Z,62.80
2022-09-21T15:14:22.822Z,62.93
2022-09-21T15:16:51.892Z,62.90
2022-09-21T15:19:18.990Z,63.15
2022-09-21T15:21:56.046Z,62.86
2022-09-21T15:24:56.367Z,63.10
2022-09-21T15:27:32.196Z,63.29
2022-09-21T15:30:37.684Z,63.00
2022-09-21T15:33:08.044Z,63.59
2022-09-21T15:35:38.131Z,63.60
2022-09-21T15:38:25.892Z,63.20
2022-09-21T15:40:52.978Z,63.34
2022-09-21T15:43:21.058Z,63.25
2022-09-21T15:45:58.076Z,63.32
2022-09-21T15:48:38.722Z,63.35
2022-09-21T15:51:19.493Z,63.22
2022-09-21T15:54:34.667Z,64.01
2022-09-21T16:24:25.170Z,64.18
2022-09-21T16:27:42.244Z,64.28
2022-09-21T16:37:51.468Z,64.64
2022-09-21T16:40:22.732Z,65.00
2022-09-21T16:42:52.981Z,65.39
2022-09-21T16:45:38.902Z,65.23
2022-09-21T16:48:08.210Z,64.94
2022-09-21T16:53:26.757Z,65.20
2022-09-21T16:55:57.336Z,65.06
2022-09-21T17:01:11.633Z,64.91
2022-09-21T17:03:42.254Z,65.10
2022-09-21T17:06:22.586Z,64.85
2022-09-21T17:08:50.223Z,64.93
2022-09-21T17:11:30.001Z,64.86
2022-09-21T17:14:10.025Z,65.26
2022-09-21T17:16:48.052Z,65.19
2022-09-21T17:56:53.498Z,67.25
2022-09-21T17:59:41.184Z,67.32
2022-09-21T18:02:47.963Z,67.31
2022-09-21T18:05:29.782Z,67.31
2022-09-21T18:08:23.154Z,66.66
2022-09-21T18:34:07.695Z,67.13
2022-09-21T18:36:38.301Z,67.93
2022-09-21T18:39:41.577Z,67.75
2022-09-21T18:42:26.891Z,67.55
2022-09-21T18:45:05.397Z,67.27
2022-09-21T18:47:44.649Z,67.49
2022-09-21T19:08:03.908Z,68.23
2022-09-21T19:10:59.267Z,67.51
2022-09-21T19:14:33.947Z,67.56
2022-09-21T19:17:19.087Z,67.55
2022-09-21T19:20:30.979Z,67.63
2022-09-21T19:33:03.293Z,67.67
2022-09-21T21:22:22.688Z,68.39
2022-09-21T21:24:50.671Z,68.39
2022-09-21T21:27:22.446Z,68.36
2022-09-21T21:29:53.586Z,68.50
2022-09-21T21:32:25.700Z,68.08
2022-09-21T21:34:55.313Z,68.32
2022-09-21T21:37:29.571Z,68.31
2022-09-21T21:56:58.469Z,68.86
2022-09-21T21:59:26.492Z,68.28
2022-09-21T22:02:05.383Z,69.00
2022-09-21T22:04:41.154Z,68.76
2022-09-21T22:07:26.525Z,68.88
2022-09-21T22:09:57.048Z,68.85
2022-09-21T22:12:28.417Z,68.59
2022-09-21T22:15:03.889Z,68.69
2022-09-21T22:17:35.567Z,69.03
2022-09-21T22:20:07.292Z,68.97
2022-09-21T22:22:41.792Z,68.98
2022-09-21T22:25:12.678Z,68.23
2022-09-21T22:27:43.483Z,69.02
2022-09-21T22:30:17.012Z,68.59
2022-09-21T22:32:49.037Z,68.62
2022-09-21T22:35:21.110Z,68.58
2022-09-21T22:37:55.769Z,68.61
2022-09-21T22:40:29.723Z,69.35
2022-09-21T22:43:03.965Z,68.73
2022-09-21T22:45:38.468Z,68.63
2022-09-21T22:48:10.798Z,68.66
2022-09-21T22:50:42.438Z,68.90
2022-09-21T22:53:21.604Z,68.82
2022-09-21T22:55:58.557Z,68.78
2022-09-21T23:04:19.192Z,68.69
2022-09-21T23:06:49.789Z,68.52
2022-09-21T23:09:18.922Z,68.54
2022-09-21T23:11:49.505Z,68.40
2022-09-21T23:14:17.562Z,68.46
2022-09-21T23:16:44.973Z,68.93
2022-09-21T23:19:21.575Z,68.96
2022-09-21T23:21:50.307Z,68.79
2022-09-21T23:24:18.613Z,68.85
2022-09-21T23:26:45.871Z,68.53
2022-09-21T23:29:16.029Z,68.94
2022-09-21T23:31:46.609Z,69.01
2022-09-21T23:34:14.936Z,68.74
2022-09-21T23:36:42.648Z,68.50
2022-09-21T23:39:12.017Z,68.74
2022-09-21T23:41:39.343Z,68.56
2022-09-21T23:44:06.982Z,68.58
2022-09-21T23:46:36.267Z,68.57
2022-09-21T23:49:04.032Z,68.69
2022-09-21T23:51:31.362Z,68.50
2022-09-21T23:53:58.724Z,68.46
2022-09-21T23:56:25.870Z,68.82
2022-09-21T23:58:56.609Z,68.49
